createdAt,value
2023-05-13T04:22:56.692Z,51.97
2023-05-13T04:25:23.935Z,50.76
2023-05-13T04:27:51.086Z,50.26
2023-05-13T04:30:25.490Z,50.14
2023-05-13T04:32:54.311Z,49.84
2023-05-13T04:35:21.419Z,49.42
2023-05-13T04:37:52.356Z,49.16
2023-05-13T04:40:20.181Z,49.14
2023-05-13T04:42:54.504Z,48.97
2023-05-13T04:45:25.315Z,48.89
2023-05-13T04:47:52.600Z,48.83
2023-05-13T04:50:19.929Z,48.62
2023-05-13T04:52:48.653Z,48.31
2023-05-13T04:55:17.085Z,48.07
2023-05-13T04:57:43.976Z,47.81
2023-05-13T05:00:11.667Z,47.39
2023-05-13T05:02:40.022Z,47.41
2023-05-13T05:05:07.110Z,47.14
2023-05-13T05:07:34.314Z,46.98
2023-05-13T05:10:01.969Z,46.16
2023-05-13T05:12:32.332Z,44.70
2023-05-13T05:14:59.213Z,43.08
2023-05-13T05:17:32.652Z,41.16
2023-05-13T05:20:02.788Z,39.44
2023-05-13T05:22:29.757Z,37.93
2023-05-13T05:24:56.938Z,36.39
2023-05-13T05:27:25.283Z,35.00
2023-05-13T05:29:52.315Z,34.07
2023-05-13T05:32:19.581Z,32.98
2023-05-13T05:34:46.465Z,31.62
2023-05-13T05:37:13.329Z,30.33
2023-05-13T05:39:41.842Z,29.37
2023-05-13T05:42:08.846Z,29.27
2023-05-13T05:44:36.240Z,29.57
2023-05-13T05:47:03.342Z,29.74
2023-05-13T05:49:30.838Z,29.72
2023-05-13T05:51:58.610Z,30.70
2023-05-13T05:54:27.766Z,31.08
2023-05-13T05:56:55.358Z,31.59
2023-05-13T05:59:22.571Z,31.87
2023-05-13T06:01:50.214Z,32.69
2023-05-13T06:04:17.548Z,33.33
2023-05-13T06:06:45.718Z,33.58
2023-05-13T06:09:13.546Z,34.06
2023-05-13T06:11:40.611Z,34.44
2023-05-13T06:14:10.622Z,34.67
2023-05-13T06:16:37.908Z,35.33
2023-05-13T06:19:06.430Z,35.49
2023-05-13T06:21:34.721Z,35.55
2023-05-13T06:24:03.253Z,35.76
2023-05-13T06:26:31.943Z,36.00
2023-05-13T06:29:00.137Z,36.36
2023-05-13T06:31:27.768Z,36.78
2023-05-13T06:33:54.615Z,37.28
2023-05-13T06:36:26.384Z,37.71
2023-05-13T06:38:53.917Z,37.94
2023-05-13T06:41:22.834Z,38.05
2023-05-13T06:43:50.749Z,38.24
2023-05-13T06:46:21.684Z,38.44
2023-05-13T06:48:52.404Z,38.60
2023-05-13T06:51:19.395Z,38.53
2023-05-13T06:53:46.388Z,38.58
2023-05-13T06:56:13.556Z,38.58
2023-05-13T06:58:40.620Z,38.61
2023-05-13T07:01:09.005Z,38.71
2023-05-13T07:03:36.627Z,38.76
2023-05-13T07:06:04.518Z,38.48
2023-05-13T07:08:31.385Z,38.44
2023-05-13T07:10:58.637Z,38.54
2023-05-13T07:13:27.650Z,38.45
2023-05-13T07:15:55.232Z,38.28
2023-05-13T07:18:22.590Z,37.60
2023-05-13T07:20:49.485Z,37.01
2023-05-13T07:23:16.371Z,36.84
2023-05-13T07:25:43.831Z,36.79
2023-05-13T07:28:10.881Z,36.49
2023-05-13T07:30:40.284Z,36.41
2023-05-13T07:33:07.289Z,36.41
2023-05-13T07:35:34.157Z,36.40
2023-05-13T07:38:01.136Z,36.37
2023-05-13T07:40:28.021Z,36.09
2023-05-13T07:42:54.866Z,36.00
2023-05-13T07:45:22.379Z,35.73
2023-05-13T07:47:49.840Z,35.38
2023-05-13T07:50:17.048Z,35.21
2023-05-13T07:52:44.274Z,35.19
2023-05-13T07:55:11.557Z,35.10
2023-05-13T07:57:38.431Z,34.81
2023-05-13T08:00:06.340Z,34.46
2023-05-13T08:02:41.478Z,34.37
2023-05-13T08:05:08.589Z,34.25
2023-05-13T08:07:35.574Z,34.20
2023-05-13T08:10:02.686Z,32.83
2023-05-13T08:12:29.588Z,32.89
2023-05-13T08:14:56.594Z,32.82
2023-05-13T08:17:23.570Z,32.23
2023-05-13T08:19:50.636Z,31.80
2023-05-13T08:22:17.479Z,31.18
2023-05-13T08:24:45.547Z,30.03
2023-05-13T08:27:13.214Z,28.63
2023-05-13T08:29:40.920Z,27.42
2023-05-13T08:32:07.852Z,26.58
2023-05-13T08:34:35.588Z,25.82
2023-05-13T08:37:02.584Z,24.90
2023-05-13T08:39:29.546Z,25.14
2023-05-13T08:41:57.823Z,25.13
2023-05-13T08:44:29.279Z,24.54
2023-05-13T08:47:11.684Z,23.95
2023-05-13T08:49:38.475Z,23.51
2023-05-13T08:52:06.145Z,23.11
2023-05-13T08:54:32.966Z,22.99
2023-05-13T09:02:55.050Z,20.19
2023-05-13T09:05:22.351Z,20.09
2023-05-13T09:07:49.655Z,19.76
2023-05-13T09:10:16.917Z,19.45
2023-05-13T09:12:47.014Z,19.08
2023-05-13T09:15:26.606Z,18.51
2023-05-13T09:17:59.762Z,18.54
2023-05-13T09:20:26.927Z,18.64
2023-05-13T09:23:17.883Z,18.21
2023-05-13T09:25:44.916Z,18.12
2023-05-13T09:28:14.459Z,17.71
2023-05-13T09:30:46.214Z,17.47
2023-05-13T09:33:19.970Z,17.66
2023-05-13T09:35:52.236Z,16.94
2023-05-13T09:38:20.705Z,17.32
2023-05-13T09:41:00.156Z,17.14
2023-05-13T09:43:29.031Z,17.38
2023-05-13T09:45:57.458Z,18.03
2023-05-13T09:48:28.578Z,18.89
2023-05-13T09:50:58.004Z,19.32
2023-05-13T09:53:28.507Z,19.00
2023-05-13T09:55:56.913Z,18.65
2023-05-13T09:58:25.431Z,18.78
2023-05-13T10:00:53.352Z,18.42
2023-05-13T10:03:20.725Z,18.18
2023-05-13T10:05:48.520Z,17.77
2023-05-13T10:08:15.937Z,17.97
2023-05-13T10:10:47.948Z,18.35
2023-05-13T10:13:16.014Z,18.29
2023-05-13T10:15:50.493Z,17.62
2023-05-13T10:18:19.878Z,17.45
2023-05-13T10:20:47.468Z,17.67
2023-05-13T10:23:16.370Z,17.69
2023-05-13T10:25:43.316Z,17.93
2023-05-13T10:28:10.703Z,18.07
2023-05-13T10:30:39.224Z,18.50
2023-05-13T10:33:06.309Z,18.58
2023-05-13T10:35:38.515Z,18.52
2023-05-13T10:38:30.060Z,18.62
2023-05-13T10:41:15.182Z,19.10
2023-05-13T10:43:42.134Z,19.83
2023-05-13T10:46:12.531Z,19.76
2023-05-13T10:48:41.648Z,19.71
2023-05-13T10:51:09.700Z,19.50
2023-05-13T10:53:44.262Z,19.08
2023-05-13T10:56:12.149Z,18.44
2023-05-13T10:58:39.962Z,18.43
2023-05-13T11:01:28.469Z,18.65
2023-05-13T11:03:57.280Z,18.82
2023-05-13T11:06:29.337Z,18.34
2023-05-13T11:08:56.501Z,17.75
2023-05-13T11:11:23.567Z,17.37
2023-05-13T11:14:03.987Z,17.02
2023-05-13T11:16:31.060Z,17.07
2023-05-13T11:18:58.255Z,16.75
2023-05-13T11:21:41.187Z,16.58
2023-05-13T11:24:08.247Z,16.50
2023-05-13T11:26:51.746Z,16.06
2023-05-13T11:29:37.103Z,15.71
2023-05-13T11:32:05.166Z,16.02
2023-05-13T11:34:32.328Z,16.20
2023-05-13T11:37:08.889Z,16.13
2023-05-13T11:39:36.375Z,15.49
2023-05-13T11:42:08.698Z,15.94
2023-05-13T11:44:36.074Z,15.75
2023-05-13T11:47:06.344Z,15.90
2023-05-13T11:49:43.426Z,16.77
2023-05-13T11:52:14.167Z,16.99
2023-05-13T11:54:42.666Z,16.40
2023-05-13T11:57:16.613Z,16.67
2023-05-13T11:59:54.337Z,17.28
2023-05-13T12:02:22.717Z,17.17
2023-05-13T12:04:51.007Z,17.70
2023-05-13T12:07:24.849Z,18.08
2023-05-13T12:09:52.692Z,18.44
2023-05-13T12:12:19.842Z,18.96
2023-05-13T12:14:50.222Z,19.40
2023-05-13T12:17:18.177Z,19.78
2023-05-13T12:20:12.112Z,20.16
2023-05-13T12:22:45.398Z,20.41
2023-05-13T12:25:48.012Z,20.72
2023-05-13T12:28:21.679Z,20.94
2023-05-13T12:30:56.831Z,20.78
2023-05-13T12:33:24.805Z,20.84
2023-05-13T12:35:53.417Z,20.96
2023-05-13T12:38:24.538Z,21.17
2023-05-13T12:40:51.676Z,21.12
2023-05-13T12:43:19.748Z,21.29
2023-05-13T12:45:47.384Z,21.77
2023-05-13T12:48:14.835Z,21.74
2023-05-13T12:50:41.661Z,21.72
2023-05-13T12:53:08.521Z,21.70
2023-05-13T12:55:40.094Z,21.63
2023-05-13T12:58:11.022Z,21.50
2023-05-13T13:00:38.133Z,21.41
2023-05-13T13:03:05.193Z,21.21
2023-05-13T13:05:32.105Z,20.59
2023-05-13T13:08:01.140Z,20.17
2023-05-13T13:10:28.557Z,20.05
2023-05-13T13:12:55.349Z,19.98
2023-05-13T13:15:22.559Z,19.54
2023-05-13T13:17:49.645Z,19.41
2023-05-13T13:20:16.457Z,19.09
2023-05-13T13:22:43.807Z,18.79
2023-05-13T13:25:11.143Z,18.67
2023-05-13T13:27:38.804Z,18.21
2023-05-13T13:30:06.478Z,18.34
2023-05-13T13:32:35.414Z,18.57
2023-05-13T13:35:05.470Z,18.67
2023-05-13T13:37:32.322Z,18.94
2023-05-13T13:39:59.290Z,19.34
2023-05-13T13:42:40.329Z,19.64
2023-05-13T13:45:11.216Z,20.06
2023-05-13T13:47:38.552Z,20.80
2023-05-13T13:50:06.522Z,21.54
2023-05-13T13:52:33.493Z,22.19
2023-05-13T13:55:00.712Z,22.76
2023-05-13T13:57:27.682Z,23.50
2023-05-13T13:59:55.196Z,24.60
2023-05-13T14:02:22.243Z,25.33
2023-05-13T14:04:49.180Z,25.75
2023-05-13T14:07:16.176Z,26.09
2023-05-13T14:09:43.149Z,25.71
2023-05-13T14:12:10.047Z,26.26
2023-05-13T14:14:36.751Z,26.72
2023-05-13T14:17:04.248Z,27.69
2023-05-13T14:19:31.164Z,27.73
2023-05-13T14:21:58.297Z,27.57
2023-05-13T14:24:25.076Z,27.45
2023-05-13T14:26:51.963Z,27.50
2023-05-13T14:29:18.984Z,27.31
2023-05-13T14:31:45.877Z,26.05
2023-05-13T14:34:12.619Z,25.77
2023-05-13T14:36:40.992Z,25.74
2023-05-13T14:39:10.573Z,26.20
2023-05-13T14:41:37.557Z,26.56
2023-05-13T14:44:04.614Z,27.02
2023-05-13T14:46:33.945Z,27.69
2023-05-13T14:49:01.822Z,27.41
2023-05-13T14:51:28.731Z,27.15
2023-05-13T14:53:55.606Z,26.88
2023-05-13T14:56:22.452Z,26.46
2023-05-13T14:58:50.076Z,26.29
2023-05-13T15:01:17.427Z,25.96
2023-05-13T15:03:44.205Z,25.67
2023-05-13T15:06:11.147Z,25.72
2023-05-13T15:08:38.049Z,25.77
2023-05-13T15:11:08.815Z,25.20
2023-05-13T15:13:36.930Z,24.87
2023-05-13T15:16:04.001Z,25.03
2023-05-13T15:18:31.303Z,24.61
2023-05-13T15:20:58.160Z,24.43
2023-05-13T15:23:25.046Z,24.28
2023-05-13T15:25:52.290Z,24.06
2023-05-13T15:28:19.052Z,23.87
2023-05-13T15:30:45.844Z,23.95
2023-05-13T15:33:12.776Z,23.61
2023-05-13T15:35:39.604Z,23.53
2023-05-13T15:38:06.331Z,23.47
2023-05-13T15:40:33.319Z,23.67
2023-05-13T15:43:00.387Z,24.04
2023-05-13T15:45:27.350Z,24.02
2023-05-13T15:47:54.244Z,24.09
2023-05-13T15:50:21.375Z,24.10
2023-05-13T15:52:48.248Z,24.13
2023-05-13T15:55:15.170Z,24.28
2023-05-13T15:57:42.022Z,24.41
2023-05-13T16:00:09.689Z,24.28
2023-05-13T16:02:39.429Z,24.38
2023-05-13T16:05:07.115Z,24.39
2023-05-13T16:07:33.953Z,24.48
2023-05-13T16:10:01.843Z,24.86
2023-05-13T16:12:32.329Z,25.29
2023-05-13T16:14:59.183Z,25.31
2023-05-13T16:17:25.962Z,25.29
2023-05-13T16:19:52.915Z,25.62
2023-05-13T16:22:33.698Z,25.68
2023-05-13T16:25:01.624Z,26.04
2023-05-13T16:27:28.847Z,25.29
2023-05-13T16:29:57.650Z,25.37
2023-05-13T16:32:24.818Z,25.71
2023-05-13T16:34:52.061Z,25.78
2023-05-13T16:37:18.818Z,25.87
2023-05-13T16:39:45.811Z,26.09
2023-05-13T16:42:12.715Z,26.34
2023-05-13T16:44:40.703Z,26.80
2023-05-13T16:47:09.183Z,27.52
2023-05-13T16:49:36.522Z,28.07
2023-05-13T16:52:06.737Z,27.78
2023-05-13T16:54:33.717Z,27.79
2023-05-13T16:57:01.727Z,27.74
2023-05-13T16:59:28.524Z,27.54
2023-05-13T17:01:56.130Z,27.48
2023-05-13T17:04:22.915Z,27.73
2023-05-13T17:06:51.055Z,27.82
2023-05-13T17:09:17.863Z,28.24
2023-05-13T17:11:45.045Z,28.82
2023-05-13T17:14:11.772Z,29.03
2023-05-13T17:16:39.243Z,28.99
2023-05-13T17:19:06.102Z,29.27
2023-05-13T17:21:32.893Z,29.10
2023-05-13T17:23:59.624Z,29.24
2023-05-13T17:26:26.515Z,29.29
2023-05-13T17:28:53.893Z,29.27
2023-05-13T17:31:20.701Z,29.53
2023-05-13T17:33:47.739Z,29.65
2023-05-13T17:36:15.143Z,29.72
2023-05-13T17:38:42.012Z,29.77
2023-05-13T17:41:08.853Z,29.91
2023-05-13T17:43:36.421Z,30.13
2023-05-13T17:46:03.887Z,30.18
2023-05-13T17:48:31.771Z,30.31
2023-05-13T17:50:59.135Z,30.22
2023-05-13T17:53:27.832Z,30.41
2023-05-13T17:55:54.724Z,30.67
2023-05-13T17:58:21.565Z,30.85
2023-05-13T18:00:48.938Z,31.00
2023-05-13T18:03:16.399Z,31.41
2023-05-13T18:05:43.404Z,31.73
2023-05-13T18:08:10.520Z,31.86
2023-05-13T18:10:37.392Z,32.01
2023-05-13T18:13:04.361Z,32.30
2023-05-13T18:15:31.143Z,32.59
2023-05-13T18:17:57.875Z,33.07
2023-05-13T18:20:24.796Z,33.80
2023-05-13T18:22:52.153Z,34.13
2023-05-13T18:25:19.019Z,34.08
2023-05-13T18:27:45.884Z,34.59
2023-05-13T18:30:13.069Z,35.12
2023-05-13T18:32:41.294Z,35.45
2023-05-13T18:35:09.346Z,35.64
2023-05-13T18:37:36.955Z,35.83
2023-05-13T18:40:04.460Z,36.05
2023-05-13T18:42:31.410Z,36.20
2023-05-13T18:44:58.857Z,36.14
2023-05-13T18:47:27.715Z,36.48
2023-05-13T18:49:54.677Z,36.54
2023-05-13T18:52:21.549Z,36.57
2023-05-13T18:54:48.498Z,36.77
2023-05-13T18:57:16.803Z,36.64
2023-05-13T18:59:43.749Z,36.74
2023-05-13T19:02:10.940Z,36.85
2023-05-13T19:04:38.315Z,37.06
2023-05-13T19:07:07.385Z,37.28
2023-05-13T19:09:36.396Z,37.31
2023-05-13T19:12:03.384Z,37.54
2023-05-13T19:14:30.126Z,37.68
2023-05-13T19:16:57.067Z,37.80
2023-05-13T19:19:24.378Z,37.74
2023-05-13T19:21:51.400Z,37.70
2023-05-13T19:24:18.465Z,38.09
2023-05-13T19:26:45.242Z,38.20
2023-05-13T19:29:13.012Z,38.36
2023-05-13T19:31:40.175Z,38.49
2023-05-13T19:34:10.203Z,38.48
2023-05-13T19:36:40.890Z,38.73
2023-05-13T19:39:10.564Z,38.94
2023-05-13T19:41:39.751Z,39.21
2023-05-13T19:44:09.838Z,39.37
2023-05-13T19:46:39.170Z,39.52
2023-05-13T19:49:09.962Z,39.64
2023-05-13T19:51:39.230Z,39.55
2023-05-13T19:54:11.311Z,39.50
2023-05-13T19:56:42.350Z,39.46
2023-05-13T19:59:13.510Z,39.58
2023-05-13T20:01:45.316Z,39.56
2023-05-13T20:04:14.411Z,39.56
2023-05-13T20:06:45.350Z,39.70
2023-05-13T20:09:16.288Z,39.86
2023-05-13T20:11:47.276Z,39.80
2023-05-13T20:14:27.450Z,39.87
2023-05-13T20:16:57.274Z,40.04
2023-05-13T20:19:28.333Z,40.21
2023-05-13T20:21:58.647Z,40.15
2023-05-13T20:24:28.268Z,39.97
2023-05-13T20:26:59.302Z,40.05
2023-05-13T20:29:34.825Z,40.00
2023-05-13T20:32:05.540Z,40.09
2023-05-13T20:40:38.949Z,40.51
2023-05-13T20:43:07.640Z,40.85
2023-05-13T20:45:39.217Z,41.02
2023-05-13T20:48:06.632Z,41.28
2023-05-13T20:50:33.479Z,41.27
2023-05-13T20:53:00.714Z,41.10
2023-05-13T20:55:27.728Z,41.03
2023-05-13T20:57:54.639Z,41.04
2023-05-13T21:00:22.046Z,41.21
2023-05-13T21:02:50.482Z,41.30
2023-05-13T21:05:17.636Z,41.46
2023-05-13T21:07:44.440Z,41.63
2023-05-13T21:10:11.324Z,41.76
2023-05-13T21:12:38.119Z,41.97
2023-05-13T21:15:05.517Z,41.99
2023-05-13T21:17:33.664Z,42.10
2023-05-13T21:20:00.558Z,41.95
